sensor_id;sensor_type;location;lat;lon;timestamp;P1;durP1;ratioP1;P2;durP2;ratioP2
13799;SDS011;6971;50.028;9.258;2023-10-31T00:02:14;2.37;;;2.17;;
13799;SDS011;6971;50.028;9.258;2023-10-31T00:07:14;2.20;;;1.83;;
13799;SDS011;6971;50.028;9.258;2023-10-31T00:12:15;1.60;;;1.50;;
13799;SDS011;6971;50.028;9.258;2023-10-31T00:17:15;1.33;;;1.20;;
13799;SDS011;6971;50.028;9.258;2023-10-31T00:22:15;1.33;;;1.20;;
13799;SDS011;6971;50.028;9.258;2023-10-31T00:27:16;1.77;;;1.20;;
13799;SDS011;6971;50.028;9.258;2023-10-31T00:32:16;2.10;;;1.07;;
13799;SDS011;6971;50.028;9.258;2023-10-31T00:37:16;1.00;;;0.90;;
13799;SDS011;6971;50.028;9.258;2023-10-31T00:42:16;0.90;;;0.87;;
13799;SDS011;6971;50.028;9.258;2023-10-31T00:47:17;1.00;;;0.90;;
13799;SDS011;6971;50.028;9.258;2023-10-31T00:52:18;1.23;;;1.13;;
13799;SDS011;6971;50.028;9.258;2023-10-31T00:57:18;1.20;;;0.87;;
13799;SDS011;6971;50.028;9.258;2023-10-31T01:02:19;1.20;;;1.10;;
13799;SDS011;6971;50.028;9.258;2023-10-31T01:07:19;1.30;;;1.20;;
13799;SDS011;6971;50.028;9.258;2023-10-31T01:12:19;1.20;;;1.10;;
13799;SDS011;6971;50.028;9.258;2023-10-31T01:17:20;1.57;;;1.23;;
13799;SDS011;6971;50.028;9.258;2023-10-31T01:22:20;1.80;;;1.40;;
13799;SDS011;6971;50.028;9.258;2023-10-31T01:27:21;1.90;;;1.50;;
13799;SDS011;6971;50.028;9.258;2023-10-31T01:32:21;2.47;;;1.67;;
13799;SDS011;6971;50.028;9.258;2023-10-31T01:37:21;2.00;;;1.60;;
13799;SDS011;6971;50.028;9.258;2023-10-31T01:42:22;3.10;;;1.90;;
13799;SDS011;6971;50.028;9.258;2023-10-31T01:47:22;1.83;;;1.40;;
13799;SDS011;6971;50.028;9.258;2023-10-31T01:52:24;1.50;;;1.40;;
13799;SDS011;6971;50.028;9.258;2023-10-31T01:57:25;1.33;;;1.20;;
13799;SDS011;6971;50.028;9.258;2023-10-31T02:02:26;2.00;;;1.80;;
13799;SDS011;6971;50.028;9.258;2023-10-31T02:07:27;1.97;;;1.60;;
13799;SDS011;6971;50.028;9.258;2023-10-31T02:12:31;2.10;;;1.70;;
13799;SDS011;6971;50.028;9.258;2023-10-31T02:17:32;1.70;;;1.57;;
13799;SDS011;6971;50.028;9.258;2023-10-31T02:22:33;1.40;;;1.30;;
13799;SDS011;6971;50.028;9.258;2023-10-31T02:27:33;1.83;;;1.63;;
13799;SDS011;6971;50.028;9.258;2023-10-31T02:32:33;3.73;;;1.50;;
13799;SDS011;6971;50.028;9.258;2023-10-31T02:37:34;1.50;;;1.40;;
13799;SDS011;6971;50.028;9.258;2023-10-31T02:42:34;1.60;;;1.40;;
13799;SDS011;6971;50.028;9.258;2023-10-31T02:47:34;1.80;;;1.60;;
13799;SDS011;6971;50.028;9.258;2023-10-31T02:52:35;1.50;;;1.40;;
13799;SDS011;6971;50.028;9.258;2023-10-31T02:57:35;3.50;;;1.63;;
13799;SDS011;6971;50.028;9.258;2023-10-31T03:02:36;1.43;;;1.33;;
13799;SDS011;6971;50.028;9.258;2023-10-31T03:07:36;1.20;;;1.10;;
13799;SDS011;6971;50.028;9.258;2023-10-31T03:12:37;1.07;;;0.97;;
13799;SDS011;6971;50.028;9.258;2023-10-31T03:17:38;1.43;;;0.97;;
13799;SDS011;6971;50.028;9.258;2023-10-31T03:22:38;1.67;;;1.27;;
13799;SDS011;6971;50.028;9.258;2023-10-31T03:27:39;1.53;;;1.10;;
13799;SDS011;6971;50.028;9.258;2023-10-31T03:32:39;1.00;;;0.90;;
13799;SDS011;6971;50.028;9.258;2023-10-31T03:37:39;1.20;;;1.10;;
13799;SDS011;6971;50.028;9.258;2023-10-31T03:42:41;3.43;;;1.20;;
13799;SDS011;6971;50.028;9.258;2023-10-31T03:47:41;1.10;;;1.00;;
13799;SDS011;6971;50.028;9.258;2023-10-31T03:52:42;1.77;;;1.30;;
13799;SDS011;6971;50.028;9.258;2023-10-31T03:57:43;1.40;;;1.27;;
13799;SDS011;6971;50.028;9.258;2023-10-31T04:02:43;1.43;;;1.10;;
13799;SDS011;6971;50.028;9.258;2023-10-31T04:07:45;0.80;;;0.80;;
13799;SDS011;6971;50.028;9.258;2023-10-31T04:12:46;2.43;;;1.00;;
13799;SDS011;6971;50.028;9.258;2023-10-31T04:17:47;0.93;;;0.90;;
13799;SDS011;6971;50.028;9.258;2023-10-31T04:22:47;1.07;;;0.90;;
13799;SDS011;6971;50.028;9.258;2023-10-31T04:27:48;0.87;;;0.80;;
13799;SDS011;6971;50.028;9.258;2023-10-31T04:32:48;0.80;;;0.80;;
13799;SDS011;6971;50.028;9.258;2023-10-31T04:37:48;1.00;;;0.90;;
13799;SDS011;6971;50.028;9.258;2023-10-31T04:42:49;0.60;;;0.60;;
13799;SDS011;6971;50.028;9.258;2023-10-31T04:47:49;1.90;;;0.70;;
13799;SDS011;6971;50.028;9.258;2023-10-31T04:52:49;0.70;;;0.70;;
13799;SDS011;6971;50.028;9.258;2023-10-31T04:57:50;0.77;;;0.77;;
13799;SDS011;6971;50.028;9.258;2023-10-31T05:02:50;1.10;;;0.90;;
13799;SDS011;6971;50.028;9.258;2023-10-31T05:07:50;1.97;;;0.90;;
13799;SDS011;6971;50.028;9.258;2023-10-31T05:12:51;4.23;;;1.00;;
13799;SDS011;6971;50.028;9.258;2023-10-31T05:17:51;1.63;;;0.90;;
13799;SDS011;6971;50.028;9.258;2023-10-31T05:22:52;1.47;;;0.90;;
13799;SDS011;6971;50.028;9.258;2023-10-31T05:27:52;3.10;;;2.80;;
13799;SDS011;6971;50.028;9.258;2023-10-31T05:32:52;1.47;;;1.30;;
13799;SDS011;6971;50.028;9.258;2023-10-31T05:37:53;1.50;;;1.40;;
13799;SDS011;6971;50.028;9.258;2023-10-31T05:42:53;1.50;;;1.10;;
13799;SDS011;6971;50.028;9.258;2023-10-31T05:47:54;2.63;;;1.27;;
13799;SDS011;6971;50.028;9.258;2023-10-31T05:52:54;3.30;;;1.50;;
13799;SDS011;6971;50.028;9.258;2023-10-31T05:57:54;1.40;;;1.20;;
13799;SDS011;6971;50.028;9.258;2023-10-31T06:02:54;3.93;;;2.20;;
13799;SDS011;6971;50.028;9.258;2023-10-31T06:07:55;1.67;;;1.40;;
13799;SDS011;6971;50.028;9.258;2023-10-31T06:12:56;2.17;;;1.60;;
13799;SDS011;6971;50.028;9.258;2023-10-31T06:17:56;3.63;;;1.43;;
13799;SDS011;6971;50.028;9.258;2023-10-31T06:22:56;1.50;;;1.10;;
13799;SDS011;6971;50.028;9.258;2023-10-31T06:27:57;1.60;;;1.40;;
13799;SDS011;6971;50.028;9.258;2023-10-31T06:32:59;2.00;;;1.23;;
13799;SDS011;6971;50.028;9.258;2023-10-31T06:38:00;2.00;;;1.73;;
13799;SDS011;6971;50.028;9.258;2023-10-31T06:43:01;14.73;;;13.00;;
13799;SDS011;6971;50.028;9.258;2023-10-31T06:48:02;2.50;;;1.47;;
13799;SDS011;6971;50.028;9.258;2023-10-31T06:53:02;2.23;;;2.03;;
13799;SDS011;6971;50.028;9.258;2023-10-31T06:58:03;1.40;;;1.30;;
13799;SDS011;6971;50.028;9.258;2023-10-31T07:03:04;2.60;;;1.80;;
13799;SDS011;6971;50.028;9.258;2023-10-31T07:08:09;2.10;;;1.90;;
13799;SDS011;6971;50.028;9.258;2023-10-31T07:13:09;1.40;;;1.27;;
13799;SDS011;6971;50.028;9.258;2023-10-31T07:18:09;1.27;;;1.17;;
13799;SDS011;6971;50.028;9.258;2023-10-31T07:23:10;2.57;;;1.37;;
13799;SDS011;6971;50.028;9.258;2023-10-31T07:28:10;5.97;;;3.60;;
13799;SDS011;6971;50.028;9.258;2023-10-31T07:33:10;1.77;;;1.63;;
13799;SDS011;6971;50.028;9.258;2023-10-31T07:38:11;2.10;;;1.53;;
13799;SDS011;6971;50.028;9.258;2023-10-31T07:43:11;1.40;;;1.30;;
13799;SDS011;6971;50.028;9.258;2023-10-31T07:48:11;1.43;;;1.27;;
13799;SDS011;6971;50.028;9.258;2023-10-31T07:53:12;2.00;;;1.30;;
13799;SDS011;6971;50.028;9.258;2023-10-31T07:58:13;1.87;;;1.10;;
13799;SDS011;6971;50.028;9.258;2023-10-31T08:03:13;1.47;;;1.13;;
13799;SDS011;6971;50.028;9.258;2023-10-31T08:08:14;1.00;;;0.90;;
13799;SDS011;6971;50.028;9.258;2023-10-31T08:13:14;3.23;;;1.20;;
13799;SDS011;6971;50.028;9.258;2023-10-31T08:18:15;1.33;;;0.80;;
13799;SDS011;6971;50.028;9.258;2023-10-31T08:23:15;1.63;;;1.20;;
13799;SDS011;6971;50.028;9.258;2023-10-31T08:28:17;3.07;;;0.90;;
13799;SDS011;6971;50.028;9.258;2023-10-31T08:33:17;1.60;;;1.03;;
13799;SDS011;6971;50.028;9.258;2023-10-31T08:38:18;1.10;;;1.00;;
13799;SDS011;6971;50.028;9.258;2023-10-31T08:43:18;1.53;;;1.00;;
13799;SDS011;6971;50.028;9.258;2023-10-31T08:48:19;1.33;;;0.80;;
13799;SDS011;6971;50.028;9.258;2023-10-31T08:53:19;1.83;;;1.00;;
13799;SDS011;6971;50.028;9.258;2023-10-31T08:58:19;2.07;;;0.87;;
13799;SDS011;6971;50.028;9.258;2023-10-31T09:03:20;0.90;;;0.90;;
13799;SDS011;6971;50.028;9.258;2023-10-31T09:08:20;0.83;;;0.80;;
13799;SDS011;6971;50.028;9.258;2023-10-31T09:13:20;0.90;;;0.80;;
13799;SDS011;6971;50.028;9.258;2023-10-31T09:18:21;1.50;;;1.17;;
13799;SDS011;6971;50.028;9.258;2023-10-31T09:23:21;1.27;;;1.00;;
13799;SDS011;6971;50.028;9.258;2023-10-31T09:28:21;1.17;;;0.90;;
13799;SDS011;6971;50.028;9.258;2023-10-31T09:33:22;1.63;;;0.77;;
13799;SDS011;6971;50.028;9.258;2023-10-31T09:38:22;1.80;;;1.17;;
13799;SDS011;6971;50.028;9.258;2023-10-31T09:43:23;2.67;;;1.60;;
13799;SDS011;6971;50.028;9.258;2023-10-31T09:48:23;1.43;;;1.20;;
13799;SDS011;6971;50.028;9.258;2023-10-31T09:53:24;1.67;;;0.80;;
13799;SDS011;6971;50.028;9.258;2023-10-31T09:58:25;0.67;;;0.67;;
13799;SDS011;6971;50.028;9.258;2023-10-31T10:03:25;1.57;;;0.70;;
13799;SDS011;6971;50.028;9.258;2023-10-31T10:08:26;0.60;;;0.50;;
13799;SDS011;6971;50.028;9.258;2023-10-31T10:13:27;2.03;;;0.70;;
13799;SDS011;6971;50.028;9.258;2023-10-31T10:18:28;2.70;;;0.80;;
13799;SDS011;6971;50.028;9.258;2023-10-31T10:23:29;1.07;;;0.73;;
13799;SDS011;6971;50.028;9.258;2023-10-31T10:28:30;1.10;;;1.00;;
13799;SDS011;6971;50.028;9.258;2023-10-31T10:33:33;0.80;;;0.63;;
13799;SDS011;6971;50.028;9.258;2023-10-31T10:38:34;1.47;;;1.10;;
13799;SDS011;6971;50.028;9.258;2023-10-31T10:43:36;1.90;;;1.10;;
13799;SDS011;6971;50.028;9.258;2023-10-31T10:48:38;0.80;;;0.70;;
13799;SDS011;6971;50.028;9.258;2023-10-31T10:53:55;0.73;;;0.73;;
13799;SDS011;6971;50.028;9.258;2023-10-31T10:59:03;0.90;;;0.80;;
13799;SDS011;6971;50.028;9.258;2023-10-31T11:04:10;2.10;;;0.63;;
13799;SDS011;6971;50.028;9.258;2023-10-31T11:09:11;1.23;;;0.77;;
13799;SDS011;6971;50.028;9.258;2023-10-31T11:14:13;0.60;;;0.60;;
13799;SDS011;6971;50.028;9.258;2023-10-31T11:19:13;0.70;;;0.57;;
13799;SDS011;6971;50.028;9.258;2023-10-31T11:24:15;0.93;;;0.70;;
13799;SDS011;6971;50.028;9.258;2023-10-31T11:29:15;0.50;;;0.50;;
13799;SDS011;6971;50.028;9.258;2023-10-31T11:34:17;1.17;;;0.60;;
13799;SDS011;6971;50.028;9.258;2023-10-31T11:39:20;0.90;;;0.70;;
13799;SDS011;6971;50.028;9.258;2023-10-31T11:44:25;0.60;;;0.60;;
13799;SDS011;6971;50.028;9.258;2023-10-31T11:49:45;0.77;;;0.50;;
13799;SDS011;6971;50.028;9.258;2023-10-31T11:54:49;1.20;;;0.60;;
13799;SDS011;6971;50.028;9.258;2023-10-31T11:59:50;0.63;;;0.60;;
13799;SDS011;6971;50.028;9.258;2023-10-31T12:04:50;1.00;;;0.70;;
13799;SDS011;6971;50.028;9.258;2023-10-31T12:09:51;0.97;;;0.87;;
13799;SDS011;6971;50.028;9.258;2023-10-31T12:14:51;0.80;;;0.70;;
13799;SDS011;6971;50.028;9.258;2023-10-31T12:20:04;1.50;;;0.80;;
13799;SDS011;6971;50.028;9.258;2023-10-31T12:25:06;1.73;;;0.90;;
13799;SDS011;6971;50.028;9.258;2023-10-31T12:30:08;1.33;;;0.70;;
13799;SDS011;6971;50.028;9.258;2023-10-31T12:35:14;0.50;;;0.50;;
13799;SDS011;6971;50.028;9.258;2023-10-31T12:40:21;1.30;;;0.70;;
13799;SDS011;6971;50.028;9.258;2023-10-31T12:45:22;1.80;;;0.93;;
13799;SDS011;6971;50.028;9.258;2023-10-31T12:50:22;5.60;;;5.00;;
13799;SDS011;6971;50.028;9.258;2023-10-31T12:55:23;2.47;;;1.40;;
13799;SDS011;6971;50.028;9.258;2023-10-31T13:00:32;2.37;;;1.40;;
13799;SDS011;6971;50.028;9.258;2023-10-31T13:05:34;0.80;;;0.70;;
13799;SDS011;6971;50.028;9.258;2023-10-31T13:10:34;1.50;;;0.77;;
13799;SDS011;6971;50.028;9.258;2023-10-31T13:15:35;1.10;;;0.63;;
13799;SDS011;6971;50.028;9.258;2023-10-31T13:20:36;1.10;;;0.97;;
13799;SDS011;6971;50.028;9.258;2023-10-31T13:25:36;1.40;;;0.90;;
13799;SDS011;6971;50.028;9.258;2023-10-31T13:30:37;1.63;;;0.70;;
13799;SDS011;6971;50.028;9.258;2023-10-31T13:35:37;1.10;;;0.60;;
13799;SDS011;6971;50.028;9.258;2023-10-31T13:40:37;0.67;;;0.57;;
13799;SDS011;6971;50.028;9.258;2023-10-31T13:45:38;1.43;;;0.80;;
13799;SDS011;6971;50.028;9.258;2023-10-31T13:50:38;0.50;;;0.50;;
13799;SDS011;6971;50.028;9.258;2023-10-31T13:55:38;2.57;;;0.80;;
13799;SDS011;6971;50.028;9.258;2023-10-31T14:00:38;1.93;;;0.83;;
13799;SDS011;6971;50.028;9.258;2023-10-31T14:05:39;2.13;;;1.27;;
13799;SDS011;6971;50.028;9.258;2023-10-31T14:10:39;0.93;;;0.60;;
13799;SDS011;6971;50.028;9.258;2023-10-31T14:15:40;1.47;;;0.73;;
13799;SDS011;6971;50.028;9.258;2023-10-31T14:20:41;1.53;;;0.80;;
13799;SDS011;6971;50.028;9.258;2023-10-31T14:25:41;1.43;;;0.70;;
13799;SDS011;6971;50.028;9.258;2023-10-31T14:30:41;2.10;;;1.40;;
13799;SDS011;6971;50.028;9.258;2023-10-31T14:35:42;1.97;;;1.00;;
13799;SDS011;6971;50.028;9.258;2023-10-31T14:40:42;0.90;;;0.90;;
13799;SDS011;6971;50.028;9.258;2023-10-31T14:45:42;2.03;;;1.00;;
13799;SDS011;6971;50.028;9.258;2023-10-31T14:50:43;4.17;;;1.23;;
13799;SDS011;6971;50.028;9.258;2023-10-31T14:55:43;3.90;;;1.20;;
13799;SDS011;6971;50.028;9.258;2023-10-31T15:00:43;3.33;;;1.20;;
13799;SDS011;6971;50.028;9.258;2023-10-31T15:05:44;2.83;;;1.40;;
13799;SDS011;6971;50.028;9.258;2023-10-31T15:10:44;2.60;;;1.57;;
13799;SDS011;6971;50.028;9.258;2023-10-31T15:15:45;2.53;;;1.83;;
13799;SDS011;6971;50.028;9.258;2023-10-31T15:20:45;1.70;;;1.13;;
13799;SDS011;6971;50.028;9.258;2023-10-31T15:25:45;3.40;;;1.90;;
13799;SDS011;6971;50.028;9.258;2023-10-31T15:30:46;2.30;;;1.37;;
13799;SDS011;6971;50.028;9.258;2023-10-31T15:35:47;3.13;;;1.70;;
13799;SDS011;6971;50.028;9.258;2023-10-31T15:40:48;3.83;;;1.87;;
13799;SDS011;6971;50.028;9.258;2023-10-31T15:45:48;2.17;;;1.50;;
13799;SDS011;6971;50.028;9.258;2023-10-31T15:50:48;3.40;;;1.90;;
13799;SDS011;6971;50.028;9.258;2023-10-31T15:55:49;6.30;;;2.83;;
13799;SDS011;6971;50.028;9.258;2023-10-31T16:00:49;1.07;;;0.87;;
13799;SDS011;6971;50.028;9.258;2023-10-31T16:05:49;2.33;;;1.30;;
13799;SDS011;6971;50.028;9.258;2023-10-31T16:10:50;2.13;;;1.10;;
13799;SDS011;6971;50.028;9.258;2023-10-31T16:15:50;2.90;;;2.30;;
13799;SDS011;6971;50.028;9.258;2023-10-31T16:20:50;1.93;;;1.30;;
13799;SDS011;6971;50.028;9.258;2023-10-31T16:25:51;2.27;;;1.70;;
13799;SDS011;6971;50.028;9.258;2023-10-31T16:30:51;2.33;;;1.27;;
13799;SDS011;6971;50.028;9.258;2023-10-31T16:35:52;3.57;;;1.33;;
13799;SDS011;6971;50.028;9.258;2023-10-31T16:40:52;1.73;;;1.50;;
13799;SDS011;6971;50.028;9.258;2023-10-31T16:45:52;2.33;;;1.80;;
13799;SDS011;6971;50.028;9.258;2023-10-31T16:50:53;2.57;;;2.00;;
13799;SDS011;6971;50.028;9.258;2023-10-31T16:55:53;2.43;;;1.50;;
13799;SDS011;6971;50.028;9.258;2023-10-31T17:00:54;2.80;;;2.50;;
13799;SDS011;6971;50.028;9.258;2023-10-31T17:05:54;2.40;;;1.40;;
13799;SDS011;6971;50.028;9.258;2023-10-31T17:10:55;2.00;;;1.30;;
13799;SDS011;6971;50.028;9.258;2023-10-31T17:15:55;1.57;;;1.47;;
13799;SDS011;6971;50.028;9.258;2023-10-31T17:20:56;2.70;;;1.63;;
13799;SDS011;6971;50.028;9.258;2023-10-31T17:25:56;3.27;;;1.50;;
13799;SDS011;6971;50.028;9.258;2023-10-31T17:30:57;2.70;;;1.50;;
13799;SDS011;6971;50.028;9.258;2023-10-31T17:35:57;4.43;;;1.70;;
13799;SDS011;6971;50.028;9.258;2023-10-31T17:40:57;1.87;;;1.40;;
13799;SDS011;6971;50.028;9.258;2023-10-31T17:45:58;2.20;;;1.80;;
13799;SDS011;6971;50.028;9.258;2023-10-31T17:50:58;4.03;;;1.70;;
13799;SDS011;6971;50.028;9.258;2023-10-31T17:55:59;3.47;;;2.30;;
13799;SDS011;6971;50.028;9.258;2023-10-31T18:00:59;3.83;;;1.77;;
13799;SDS011;6971;50.028;9.258;2023-10-31T18:05:59;5.57;;;1.90;;
13799;SDS011;6971;50.028;9.258;2023-10-31T18:11:00;2.80;;;1.70;;
13799;SDS011;6971;50.028;9.258;2023-10-31T18:16:00;7.37;;;4.17;;
13799;SDS011;6971;50.028;9.258;2023-10-31T18:21:00;71.80;;;34.87;;
13799;SDS011;6971;50.028;9.258;2023-10-31T18:26:01;99.47;;;42.43;;
13799;SDS011;6971;50.028;9.258;2023-10-31T18:31:02;178.33;;;75.57;;
13799;SDS011;6971;50.028;9.258;2023-10-31T18:36:02;18.37;;;11.47;;
13799;SDS011;6971;50.028;9.258;2023-10-31T18:41:03;25.20;;;15.97;;
13799;SDS011;6971;50.028;9.258;2023-10-31T18:46:04;21.80;;;15.67;;
13799;SDS011;6971;50.028;9.258;2023-10-31T18:51:07;41.47;;;30.30;;
13799;SDS011;6971;50.028;9.258;2023-10-31T18:56:08;24.90;;;17.93;;
13799;SDS011;6971;50.028;9.258;2023-10-31T19:01:09;7.83;;;7.10;;
13799;SDS011;6971;50.028;9.258;2023-10-31T19:06:09;4.77;;;4.23;;
13799;SDS011;6971;50.028;9.258;2023-10-31T19:11:09;4.40;;;2.50;;
13799;SDS011;6971;50.028;9.258;2023-10-31T19:16:10;3.77;;;2.47;;
13799;SDS011;6971;50.028;9.258;2023-10-31T19:21:10;3.63;;;3.30;;
13799;SDS011;6971;50.028;9.258;2023-10-31T19:26:10;3.67;;;3.27;;
13799;SDS011;6971;50.028;9.258;2023-10-31T19:31:11;4.70;;;4.07;;
13799;SDS011;6971;50.028;9.258;2023-10-31T19:36:11;3.97;;;3.33;;
13799;SDS011;6971;50.028;9.258;2023-10-31T19:41:11;6.73;;;3.90;;
13799;SDS011;6971;50.028;9.258;2023-10-31T19:46:12;9.27;;;6.00;;
13799;SDS011;6971;50.028;9.258;2023-10-31T19:51:12;5.53;;;4.03;;
13799;SDS011;6971;50.028;9.258;2023-10-31T19:56:19;4.27;;;3.47;;
13799;SDS011;6971;50.028;9.258;2023-10-31T20:01:20;8.07;;;6.10;;
13799;SDS011;6971;50.028;9.258;2023-10-31T20:06:20;7.60;;;4.27;;
13799;SDS011;6971;50.028;9.258;2023-10-31T20:11:21;4.40;;;3.70;;
13799;SDS011;6971;50.028;9.258;2023-10-31T20:16:21;3.23;;;2.57;;
13799;SDS011;6971;50.028;9.258;2023-10-31T20:21:22;4.13;;;3.13;;
13799;SDS011;6971;50.028;9.258;2023-10-31T20:26:22;3.97;;;3.47;;
13799;SDS011;6971;50.028;9.258;2023-10-31T20:31:22;3.73;;;3.10;;
13799;SDS011;6971;50.028;9.258;2023-10-31T20:36:24;4.83;;;3.53;;
13799;SDS011;6971;50.028;9.258;2023-10-31T20:41:24;5.53;;;3.97;;
13799;SDS011;6971;50.028;9.258;2023-10-31T20:46:24;3.50;;;2.97;;
13799;SDS011;6971;50.028;9.258;2023-10-31T20:51:25;4.53;;;3.90;;
13799;SDS011;6971;50.028;9.258;2023-10-31T20:56:25;4.00;;;3.20;;
13799;SDS011;6971;50.028;9.258;2023-10-31T21:01:27;4.47;;;4.00;;
13799;SDS011;6971;50.028;9.258;2023-10-31T21:06:27;5.63;;;3.40;;
13799;SDS011;6971;50.028;9.258;2023-10-31T21:11:28;3.60;;;3.10;;
13799;SDS011;6971;50.028;9.258;2023-10-31T21:16:29;4.00;;;2.60;;
13799;SDS011;6971;50.028;9.258;2023-10-31T21:21:29;6.67;;;3.17;;
13799;SDS011;6971;50.028;9.258;2023-10-31T21:26:29;7.97;;;5.50;;
13799;SDS011;6971;50.028;9.258;2023-10-31T21:31:30;5.90;;;5.20;;
13799;SDS011;6971;50.028;9.258;2023-10-31T21:36:30;5.77;;;4.20;;
13799;SDS011;6971;50.028;9.258;2023-10-31T21:41:30;6.87;;;5.70;;
13799;SDS011;6971;50.028;9.258;2023-10-31T21:46:31;5.87;;;4.77;;
13799;SDS011;6971;50.028;9.258;2023-10-31T21:51:31;4.10;;;3.70;;
13799;SDS011;6971;50.028;9.258;2023-10-31T21:56:32;3.77;;;3.37;;
13799;SDS011;6971;50.028;9.258;2023-10-31T22:01:32;3.27;;;2.73;;
13799;SDS011;6971;50.028;9.258;2023-10-31T22:06:32;4.00;;;3.23;;
13799;SDS011;6971;50.028;9.258;2023-10-31T22:11:33;4.37;;;2.30;;
13799;SDS011;6971;50.028;9.258;2023-10-31T22:16:33;4.70;;;2.93;;
13799;SDS011;6971;50.028;9.258;2023-10-31T22:21:34;4.13;;;2.33;;
13799;SDS011;6971;50.028;9.258;2023-10-31T22:26:34;2.60;;;2.27;;
13799;SDS011;6971;50.028;9.258;2023-10-31T22:31:35;4.27;;;2.80;;
13799;SDS011;6971;50.028;9.258;2023-10-31T22:36:36;5.67;;;3.03;;
13799;SDS011;6971;50.028;9.258;2023-10-31T22:41:37;7.10;;;3.10;;
13799;SDS011;6971;50.028;9.258;2023-10-31T22:46:41;5.83;;;3.13;;
13799;SDS011;6971;50.028;9.258;2023-10-31T22:51:42;9.40;;;5.33;;
13799;SDS011;6971;50.028;9.258;2023-10-31T22:56:43;3.73;;;3.33;;
13799;SDS011;6971;50.028;9.258;2023-10-31T23:01:43;4.53;;;3.30;;
13799;SDS011;6971;50.028;9.258;2023-10-31T23:06:43;4.57;;;3.20;;
13799;SDS011;6971;50.028;9.258;2023-10-31T23:11:44;5.10;;;2.97;;
13799;SDS011;6971;50.028;9.258;2023-10-31T23:16:44;3.70;;;2.43;;
13799;SDS011;6971;50.028;9.258;2023-10-31T23:21:44;3.87;;;2.30;;
13799;SDS011;6971;50.028;9.258;2023-10-31T23:26:45;3.03;;;2.30;;
13799;SDS011;6971;50.028;9.258;2023-10-31T23:31:45;4.97;;;3.60;;
13799;SDS011;6971;50.028;9.258;2023-10-31T23:36:45;3.30;;;2.80;;
13799;SDS011;6971;50.028;9.258;2023-10-31T23:41:46;8.03;;;5.47;;
13799;SDS011;6971;50.028;9.258;2023-10-31T23:46:47;6.50;;;4.10;;
13799;SDS011;6971;50.028;9.258;2023-10-31T23:51:50;6.83;;;3.37;;
13799;SDS011;6971;50.028;9.258;2023-10-31T23:56:51;3.37;;;2.40;;
